Terminal Aerodrome Forecast
Issued by NWS

Home | Current Version | Previous Version | Text Only | Print | Product List | Glossary On
Versions: 1 2 3 4 5 6 7 8 9 10 11 12 13 14 15 16 17
000
FTUS43 KDLH 162336
TAFHYR
TAF
KHYR 162336Z 1700/1724 15008KT P6SM SCT150
     FM170300 16005KT P6SM FEW016 BKN150
     FM170600 17004KT 5SM BR SCT007 BKN150
      TEMPO 1709/1713 3SM BR BKN007
     FM171500 17003KT 6SM BR SCT007
     FM171700 18005KT P6SM SCT008=

USA.gov is the U.S. government's official web portal to all federal, state and local government web resources and services.